Time;durP1;ratioP1;P1;durP2;ratioP2;P2;SDS_P1;SDS_P2;PMS_P1;PMS_P2;Temp;Humidity;BMP_temperature;BMP_pressure;BME280_temperature;BME280_humidity;BME280_pressure;Samples;Min_cycle;Max_cycle;Signal;HPM_P1;HPM_P2
2022/10/20 00:00:53;;;;;;;14.50;10.30;;;13.30;71.40;;;;;;5085348;28;20391;-60
2022/10/20 00:03:19;;;;;;;13.77;10.38;;;13.40;71.50;;;;;;5065890;28;20047;-62
2022/10/20 00:05:45;;;;;;;16.52;10.73;;;13.40;71.60;;;;;;5085848;28;20372;-62
2022/10/20 00:08:10;;;;;;;17.42;11.75;;;13.40;71.50;;;;;;5066633;28;20051;-60
2022/10/20 00:10:36;;;;;;;26.42;10.27;;;13.40;71.30;;;;;;5085644;28;20024;-60
2022/10/20 00:13:02;;;;;;;14.30;10.40;;;13.40;71.30;;;;;;5084938;28;20033;-60
2022/10/20 00:15:28;;;;;;;15.77;10.15;;;13.50;71.40;;;;;;5085513;28;20054;-60
2022/10/20 00:17:53;;;;;;;14.82;10.77;;;13.50;71.30;;;;;;5066667;28;20380;-61
2022/10/20 00:20:19;;;;;;;13.85;9.68;;;13.50;71.30;;;;;;5085830;28;20039;-59
2022/10/20 00:22:45;;;;;;;13.02;9.88;;;13.50;71.20;;;;;;5084584;28;20157;-61
2022/10/20 00:25:11;;;;;;;15.45;9.68;;;13.50;71.20;;;;;;5085548;28;20044;-61
2022/10/20 00:27:36;;;;;;;13.85;10.35;;;13.60;71.30;;;;;;5085487;28;20028;-60
2022/10/20 00:30:03;;;;;;;12.50;9.52;;;13.50;71.20;;;;;;5084553;28;20063;-60
2022/10/20 00:32:29;;;;;;;14.60;10.00;;;13.60;71.20;;;;;;5085679;28;20063;-59
2022/10/20 00:34:55;;;;;;;14.68;9.60;;;13.60;71.20;;;;;;5066372;28;20017;-61
2022/10/20 00:37:21;;;;;;;14.45;9.70;;;13.60;71.10;;;;;;5084733;28;20048;-60
2022/10/20 00:39:47;;;;;;;14.52;10.10;;;13.60;71.10;;;;;;5049548;28;20021;-60
2022/10/20 00:42:18;;;;;;;16.42;10.32;;;13.60;71.10;;;;;;5084737;28;20042;-61
2022/10/20 00:44:58;;;;;;;12.00;9.45;;;13.60;71.10;;;;;;5084322;28;20032;-60
2022/10/20 00:47:47;;;;;;;14.48;10.35;;;13.60;71.20;;;;;;5047676;28;20041;-60
2022/10/20 00:50:18;;;;;;;12.70;9.15;;;13.60;71.10;;;;;;4964623;28;20079;-59
2022/10/20 00:52:45;;;;;;;14.93;10.10;;;13.70;70.90;;;;;;5069285;28;20044;-61
2022/10/20 00:55:14;;;;;;;14.68;10.85;;;13.70;70.80;;;;;;5104565;28;20070;-61
2022/10/20 00:57:43;;;;;;;18.40;11.38;;;13.70;70.80;;;;;;5085261;28;20037;-61
2022/10/20 01:00:09;;;;;;;14.13;11.27;;;13.70;70.80;;;;;;5084545;28;20035;-60
2022/10/20 01:02:35;;;;;;;14.50;11.07;;;13.70;70.80;;;;;;5085177;28;20513;-61
2022/10/20 01:05:01;;;;;;;22.98;12.10;;;13.80;70.80;;;;;;5084468;28;20028;-60
2022/10/20 01:07:27;;;;;;;20.20;11.40;;;13.70;70.60;;;;;;5085164;28;20417;-59
2022/10/20 01:09:53;;;;;;;17.33;11.85;;;13.80;70.70;;;;;;5049178;28;20093;-60
2022/10/20 01:12:27;;;;;;;19.13;12.00;;;13.80;70.70;;;;;;5084491;28;20039;-60
2022/10/20 01:15:06;;;;;;;17.50;11.57;;;13.70;70.80;;;;;;5099534;28;20024;-61
2022/10/20 01:18:01;;;;;;;14.65;11.15;;;13.70;70.70;;;;;;5068823;28;20041;-60
2022/10/20 01:20:59;;;;;;;15.15;10.88;;;13.80;70.80;;;;;;5071771;28;20093;-60
2022/10/20 01:23:43;;;;;;;16.27;10.45;;;13.80;70.70;;;;;;5072223;28;20092;-60
2022/10/20 01:26:37;;;;;;;15.55;10.57;;;13.80;70.50;;;;;;5088566;28;20025;-60
2022/10/20 01:29:15;;;;;;;17.08;10.38;;;13.80;70.40;;;;;;5077474;28;20028;-61
2022/10/20 01:32:00;;;;;;;13.93;10.23;;;13.80;70.20;;;;;;5080577;28;20033;-59
2022/10/20 01:34:43;;;;;;;15.80;10.02;;;13.70;70.40;;;;;;5087676;28;20027;-61
2022/10/20 01:37:36;;;;;;;15.02;10.68;;;13.70;70.30;;;;;;5068521;28;20074;-60
2022/10/20 01:40:14;;;;;;;13.23;8.95;;;13.70;70.40;;;;;;5084855;28;20386;-60
2022/10/20 01:42:42;;;;;;;14.75;9.27;;;13.80;70.30;;;;;;5068286;28;20029;-61
2022/10/20 01:45:11;;;;;;;14.18;9.63;;;13.70;70.30;;;;;;5087319;28;20048;-59
2022/10/20 01:47:37;;;;;;;13.48;9.63;;;13.70;70.30;;;;;;5088402;28;20020;-61
2022/10/20 01:50:04;;;;;;;13.95;8.93;;;13.70;70.20;;;;;;5051567;28;20127;-60
2022/10/20 01:52:31;;;;;;;13.13;9.32;;;13.70;70.20;;;;;;5087358;28;20057;-60
2022/10/20 01:54:57;;;;;;;12.15;9.10;;;13.70;70.10;;;;;;5087435;28;20029;-61
2022/10/20 01:57:43;;;;;;;17.27;9.45;;;13.70;70.20;;;;;;5087812;28;20036;-60
2022/10/20 02:00:12;;;;;;;13.98;8.90;;;13.60;70.30;;;;;;5084101;28;20024;-59
2022/10/20 02:03:03;;;;;;;12.05;9.50;;;13.70;70.30;;;;;;5087892;28;20029;-61
2022/10/20 02:05:46;;;;;;;15.75;9.10;;;13.70;70.40;;;;;;5088402;28;20033;-60
2022/10/20 02:08:24;;;;;;;12.40;8.45;;;13.60;70.50;;;;;;5069940;28;20029;-62
2022/10/20 02:10:55;;;;;;;16.80;9.70;;;13.60;70.30;;;;;;5067767;28;20036;-59
2022/10/20 02:13:21;;;;;;;14.15;10.10;;;13.60;70.30;;;;;;5069033;28;20037;-60
2022/10/20 02:15:55;;;;;;;18.10;11.35;;;13.60;70.40;;;;;;5087921;28;20022;-60
2022/10/20 02:18:26;;;;;;;21.38;12.35;;;13.60;70.60;;;;;;5069331;28;20052;-61
2022/10/20 02:20:55;;;;;;;19.67;11.10;;;13.60;70.70;;;;;;5078450;28;20021;-60
2022/10/20 02:23:21;;;;;;;20.17;12.15;;;13.50;70.60;;;;;;5070532;28;20039;-60
2022/10/20 02:25:50;;;;;;;22.05;12.65;;;13.50;70.70;;;;;;5107740;28;20020;-60
2022/10/20 02:28:16;;;;;;;24.80;13.40;;;13.50;71.00;;;;;;5068684;28;20032;-60
2022/10/20 02:30:43;;;;;;;24.48;13.13;;;13.50;71.10;;;;;;5087396;28;20028;-60
2022/10/20 02:33:10;;;;;;;26.20;14.85;;;13.40;71.20;;;;;;5068548;28;20063;-59
2022/10/20 02:35:36;;;;;;;27.20;14.55;;;13.50;71.40;;;;;;5087166;28;20201;-59
2022/10/20 02:38:02;;;;;;;26.40;14.25;;;13.50;71.50;;;;;;5087242;28;20037;-60
2022/10/20 02:40:28;;;;;;;34.05;15.43;;;13.40;71.70;;;;;;5086120;28;20060;-59
2022/10/20 02:42:54;;;;;;;25.95;14.75;;;13.40;72.00;;;;;;5086988;28;20029;-61
2022/10/20 02:45:19;;;;;;;25.33;15.15;;;13.40;72.10;;;;;;5068353;28;20094;-59
2022/10/20 02:47:45;;;;;;;26.08;15.25;;;13.40;72.30;;;;;;5068932;28;20089;-59
2022/10/20 02:50:11;;;;;;;27.42;14.77;;;13.40;72.50;;;;;;5085760;28;20024;-60
2022/10/20 02:52:37;;;;;;;26.30;15.00;;;13.40;72.70;;;;;;5068518;28;20499;-60
2022/10/20 02:55:04;;;;;;;28.08;15.65;;;13.40;72.80;;;;;;5085896;28;20020;-60
2022/10/20 02:57:30;;;;;;;25.33;15.30;;;13.40;72.90;;;;;;5086762;28;20036;-60
2022/10/20 02:59:56;;;;;;;25.70;15.18;;;13.40;73.10;;;;;;5071536;28;20033;-59
2022/10/20 03:02:21;;;;;;;25.10;14.93;;;13.40;73.10;;;;;;5086148;28;20368;-60
2022/10/20 03:04:47;;;;;;;27.35;14.77;;;13.40;73.20;;;;;;5076979;28;20035;-61
2022/10/20 03:07:12;;;;;;;23.27;14.48;;;13.40;73.40;;;;;;5086190;28;20102;-60
2022/10/20 03:09:38;;;;;;;25.55;14.40;;;13.40;73.50;;;;;;5085463;28;20025;-62
2022/10/20 03:12:04;;;;;;;25.45;14.93;;;13.40;73.70;;;;;;5086399;28;20036;-60
2022/10/20 03:14:30;;;;;;;24.05;14.48;;;13.40;73.80;;;;;;5085454;28;20027;-62
2022/10/20 03:16:56;;;;;;;22.75;14.68;;;13.40;73.80;;;;;;5086531;28;20060;-60
2022/10/20 03:19:22;;;;;;;25.02;14.27;;;13.40;73.80;;;;;;5067348;28;20040;-61
2022/10/20 03:21:48;;;;;;;26.55;15.68;;;13.40;73.90;;;;;;5086281;28;20024;-60
2022/10/20 03:24:14;;;;;;;23.70;14.38;;;13.40;74.70;;;;;;5085837;28;20017;-60
2022/10/20 03:26:40;;;;;;;26.77;14.18;;;13.40;74.10;;;;;;5068143;28;20056;-61
2022/10/20 03:29:06;;;;;;;26.13;14.77;;;13.40;74.30;;;;;;5067562;28;20032;-61
2022/10/20 03:31:31;;;;;;;23.10;15.13;;;13.40;74.40;;;;;;5086196;28;20031;-60
2022/10/20 03:33:57;;;;;;;24.65;15.48;;;13.40;74.60;;;;;;5090525;28;20514;-60
2022/10/20 03:36:23;;;;;;;26.55;15.00;;;13.40;74.60;;;;;;5086983;28;20054;-61
2022/10/20 03:38:49;;;;;;;24.27;14.15;;;13.40;74.70;;;;;;5080938;28;20041;-60
2022/10/20 03:41:14;;;;;;;27.50;15.35;;;13.40;74.70;;;;;;5085465;28;20044;-59
2022/10/20 03:43:40;;;;;;;23.20;14.85;;;13.40;74.70;;;;;;5067167;28;20112;-60
2022/10/20 03:46:09;;;;;;;21.38;13.20;;;13.40;75.50;;;;;;5085649;28;20121;-60
2022/10/20 03:48:35;;;;;;;26.88;16.08;;;13.40;74.80;;;;;;5084687;28;20024;-59
2022/10/20 03:51:02;;;;;;;22.50;14.88;;;13.40;74.90;;;;;;5085939;28;20115;-59
2022/10/20 03:53:28;;;;;;;23.75;15.20;;;13.40;74.90;;;;;;5084781;28;20083;-60
2022/10/20 03:55:54;;;;;;;26.08;14.95;;;13.40;75.00;;;;;;5087856;28;20033;-59
2022/10/20 03:58:20;;;;;;;24.00;15.15;;;13.40;75.20;;;;;;5086405;28;20384;-61
2022/10/20 04:00:46;;;;;;;25.38;14.55;;;13.30;75.00;;;;;;5085369;28;20082;-60
2022/10/20 04:03:12;;;;;;;25.75;14.98;;;13.30;75.20;;;;;;5085901;28;20028;-60
2022/10/20 04:05:39;;;;;;;24.15;14.90;;;13.30;75.30;;;;;;5084759;28;20153;-60
2022/10/20 04:08:04;;;;;;;23.30;14.40;;;13.30;75.30;;;;;;5085873;28;20037;-61
2022/10/20 04:10:30;;;;;;;28.17;15.85;;;13.40;75.50;;;;;;5084995;28;20109;-61
2022/10/20 04:13:00;;;;;;;29.48;15.85;;;13.30;75.40;;;;;;5085813;28;20084;-59
2022/10/20 04:15:26;;;;;;;32.28;17.05;;;13.40;75.70;;;;;;5084570;28;20479;-60
2022/10/20 04:17:52;;;;;;;29.40;17.55;;;13.40;75.50;;;;;;5085586;28;20043;-60
2022/10/20 04:20:17;;;;;;;29.33;16.58;;;13.40;75.60;;;;;;5085311;28;20025;-60
2022/10/20 04:22:43;;;;;;;32.97;16.85;;;13.40;75.50;;;;;;5085693;28;20032;-61
2022/10/20 04:25:11;;;;;;;28.50;16.48;;;13.40;75.60;;;;;;5084729;28;20364;-59
2022/10/20 04:27:37;;;;;;;27.40;15.93;;;13.40;75.50;;;;;;5085756;28;20031;-59
2022/10/20 04:30:03;;;;;;;24.90;15.95;;;13.40;75.40;;;;;;5072186;28;20505;-61
2022/10/20 04:32:29;;;;;;;25.50;16.63;;;13.40;75.50;;;;;;5085044;28;20099;-61
2022/10/20 04:34:54;;;;;;;25.52;15.75;;;13.40;75.60;;;;;;5055559;28;20035;-60
2022/10/20 04:37:20;;;;;;;26.85;15.93;;;13.40;75.50;;;;;;5084745;28;20047;-60
2022/10/20 04:39:46;;;;;;;20.85;15.30;;;13.40;75.60;;;;;;5066762;28;20025;-60
2022/10/20 04:42:11;;;;;;;25.05;15.15;;;13.30;75.40;;;;;;5085352;28;20027;-61
2022/10/20 04:44:38;;;;;;;22.77;15.70;;;13.40;75.70;;;;;;5084919;28;20051;-59
2022/10/20 04:47:03;;;;;;;22.90;15.48;;;13.40;75.60;;;;;;5085731;28;20039;-60
2022/10/20 04:49:29;;;;;;;22.85;16.25;;;13.30;75.80;;;;;;5084565;28;20052;-61
2022/10/20 04:51:55;;;;;;;22.75;13.48;;;13.30;76.00;;;;;;5089446;28;20033;-60
2022/10/20 04:54:20;;;;;;;24.60;15.20;;;13.40;75.90;;;;;;5094709;28;20062;-60
2022/10/20 04:56:46;;;;;;;21.52;14.63;;;13.40;76.00;;;;;;5089978;28;20032;-60
2022/10/20 04:59:12;;;;;;;20.15;13.38;;;13.40;76.10;;;;;;5088288;28;20078;-60
2022/10/20 05:01:38;;;;;;;25.02;15.98;;;13.40;76.10;;;;;;5095429;28;20021;-60
2022/10/20 05:04:03;;;;;;;20.02;14.68;;;13.40;76.10;;;;;;5093586;28;20035;-61
2022/10/20 05:06:31;;;;;;;21.08;14.70;;;13.40;76.10;;;;;;5094902;28;20017;-60
2022/10/20 05:09:00;;;;;;;22.80;15.68;;;13.40;76.10;;;;;;5093351;28;20039;-60
2022/10/20 05:11:27;;;;;;;20.85;14.98;;;13.40;76.20;;;;;;5093551;28;20024;-59
2022/10/20 05:13:54;;;;;;;24.15;15.27;;;13.40;76.20;;;;;;5093264;28;20044;-59
2022/10/20 05:16:20;;;;;;;23.08;15.43;;;13.40;76.30;;;;;;5093047;28;20112;-59
2022/10/20 05:18:47;;;;;;;24.40;15.40;;;13.40;76.50;;;;;;5092535;28;20040;-59
2022/10/20 05:21:18;;;;;;;20.85;14.90;;;13.40;76.40;;;;;;5094213;28;20017;-59
2022/10/20 05:23:44;;;;;;;20.23;14.88;;;13.40;76.60;;;;;;5073471;28;20040;-60
2022/10/20 05:26:13;;;;;;;24.35;15.13;;;13.40;76.30;;;;;;5092353;28;20031;-60
2022/10/20 05:28:41;;;;;;;22.95;15.45;;;13.30;76.40;;;;;;5093942;28;20039;-60
2022/10/20 05:31:07;;;;;;;19.77;14.02;;;13.40;76.60;;;;;;5076001;28;20033;-59
2022/10/20 05:33:34;;;;;;;23.65;14.13;;;13.40;76.60;;;;;;5093763;28;20056;-60
2022/10/20 05:36:07;;;;;;;22.02;14.80;;;13.40;76.50;;;;;;5082841;28;20033;-60
2022/10/20 05:38:34;;;;;;;23.25;14.40;;;13.50;77.00;;;;;;5074187;28;20101;-59
2022/10/20 05:41:14;;;;;;;23.25;14.50;;;13.50;76.70;;;;;;5085964;28;20021;-59
2022/10/20 05:43:40;;;;;;;26.25;14.45;;;13.50;77.30;;;;;;5073837;28;20059;-60
2022/10/20 05:46:07;;;;;;;30.17;16.48;;;13.50;76.60;;;;;;5092858;28;20028;-59
2022/10/20 05:48:33;;;;;;;28.13;14.85;;;13.50;76.80;;;;;;5094985;28;20033;-59
2022/10/20 05:51:11;;;;;;;27.23;15.05;;;13.50;76.40;;;;;;5094022;28;20059;-61
2022/10/20 05:53:38;;;;;;;20.90;13.38;;;13.50;77.30;;;;;;5087844;28;20457;-60
2022/10/20 05:56:06;;;;;;;34.85;15.77;;;13.60;76.90;;;;;;5087368;28;20123;-59
2022/10/20 05:58:31;;;;;;;24.38;14.88;;;13.60;76.90;;;;;;5087945;28;20044;-61
2022/10/20 06:01:16;;;;;;;30.50;16.45;;;13.60;76.90;;;;;;5068081;28;20033;-60
2022/10/20 06:03:48;;;;;;;26.52;15.13;;;13.60;77.20;;;;;;5067879;28;20021;-60
2022/10/20 06:06:14;;;;;;;35.92;16.35;;;13.60;76.70;;;;;;5067805;28;20088;-60
2022/10/20 06:08:40;;;;;;;26.80;16.15;;;13.60;76.70;;;;;;5094158;28;20032;-60
2022/10/20 06:11:08;;;;;;;30.83;16.65;;;13.60;76.70;;;;;;5076412;28;20067;-62
2022/10/20 06:13:34;;;;;;;33.08;16.75;;;13.60;76.90;;;;;;5093795;28;20021;-60
2022/10/20 06:16:08;;;;;;;34.85;17.23;;;13.60;76.70;;;;;;5088818;28;20374;-60
2022/10/20 06:18:37;;;;;;;26.23;16.10;;;13.60;77.20;;;;;;5089219;28;20067;-60
2022/10/20 06:21:09;;;;;;;25.45;15.48;;;13.60;76.80;;;;;;5082943;28;20112;-59
2022/10/20 06:23:35;;;;;;;25.52;15.30;;;13.60;77.20;;;;;;5070173;28;20391;-59
2022/10/20 06:26:08;;;;;;;36.00;16.33;;;13.60;77.10;;;;;;5088559;28;20024;-59
2022/10/20 06:28:36;;;;;;;23.20;14.30;;;13.60;77.30;;;;;;5070426;28;20045;-61
2022/10/20 06:31:11;;;;;;;22.55;14.20;;;13.60;77.10;;;;;;5091356;28;20053;-61
2022/10/20 06:33:37;;;;;;;25.55;13.95;;;13.70;77.30;;;;;;5055207;28;20069;-61
2022/10/20 06:36:03;;;;;;;20.20;13.20;;;13.70;76.90;;;;;;5092535;28;20035;-61
2022/10/20 06:38:29;;;;;;;21.98;13.48;;;13.70;77.00;;;;;;5094332;28;20061;-60
2022/10/20 06:40:55;;;;;;;22.33;14.07;;;13.70;76.90;;;;;;5092730;28;20081;-59
2022/10/20 06:43:21;;;;;;;23.63;14.68;;;13.70;77.00;;;;;;5076093;28;20043;-60
2022/10/20 06:45:57;;;;;;;23.67;13.80;;;13.70;77.00;;;;;;5092996;28;20031;-60
2022/10/20 06:48:23;;;;;;;18.42;13.20;;;13.70;77.30;;;;;;5056576;28;20029;-60
2022/10/20 06:50:49;;;;;;;21.52;14.30;;;13.70;76.80;;;;;;5093256;28;20025;-58
2022/10/20 06:53:15;;;;;;;22.05;14.23;;;13.70;76.80;;;;;;5092829;28;20048;-61
2022/10/20 06:55:41;;;;;;;19.42;13.90;;;13.70;76.80;;;;;;5092504;28;20024;-60
2022/10/20 06:58:06;;;;;;;23.90;13.52;;;13.70;76.60;;;;;;5088389;28;20124;-61
2022/10/20 07:00:32;;;;;;;25.52;14.63;;;13.70;76.60;;;;;;5068962;28;20040;-61
2022/10/20 07:02:58;;;;;;;20.80;13.88;;;13.70;76.70;;;;;;5077140;28;20029;-61
2022/10/20 07:05:23;;;;;;;30.48;15.70;;;13.70;76.70;;;;;;5064058;28;20055;-60
2022/10/20 07:07:52;;;;;;;28.13;15.82;;;13.70;76.80;;;;;;5093570;28;20036;-60
2022/10/20 07:10:17;;;;;;;27.98;15.85;;;13.60;77.00;;;;;;5093302;28;20024;-60
2022/10/20 07:12:43;;;;;;;20.00;13.82;;;13.70;77.00;;;;;;5092385;28;20037;-60
2022/10/20 07:15:09;;;;;;;23.27;14.73;;;13.70;77.10;;;;;;5092012;28;20486;-63
2022/10/20 07:17:35;;;;;;;25.00;14.13;;;13.70;76.90;;;;;;5075317;28;20016;-60
2022/10/20 07:20:00;;;;;;;23.23;14.10;;;13.70;76.90;;;;;;5091549;28;20032;-61
2022/10/20 07:22:26;;;;;;;19.50;13.43;;;13.70;76.90;;;;;;5092021;28;20035;-60
2022/10/20 07:24:52;;;;;;;18.63;12.18;;;13.70;77.50;;;;;;5092565;28;20031;-60
2022/10/20 07:27:18;;;;;;;19.00;13.40;;;13.70;76.70;;;;;;5094079;28;20470;-60
2022/10/20 07:29:44;;;;;;;21.25;13.13;;;13.70;76.70;;;;;;5075793;28;20036;-60
2022/10/20 07:32:09;;;;;;;25.98;13.43;;;13.70;76.50;;;;;;5093769;28;20013;-60
2022/10/20 07:34:35;;;;;;;20.48;13.20;;;13.70;76.60;;;;;;5091773;28;20023;-60
2022/10/20 07:37:01;;;;;;;22.17;13.02;;;13.60;76.60;;;;;;5091750;28;20036;-60
2022/10/20 07:39:27;;;;;;;22.70;13.55;;;13.60;76.70;;;;;;5091002;28;20082;-61
2022/10/20 07:41:53;;;;;;;18.33;13.05;;;13.60;76.70;;;;;;5091478;28;20036;-59
2022/10/20 07:44:19;;;;;;;22.00;13.07;;;13.60;76.70;;;;;;5084283;28;20099;-60
2022/10/20 07:46:44;;;;;;;19.13;11.70;;;13.60;76.70;;;;;;5085735;28;20021;-59
2022/10/20 07:49:10;;;;;;;17.65;12.55;;;13.60;76.70;;;;;;5086127;28;20016;-59
2022/10/20 07:51:36;;;;;;;27.98;14.13;;;13.60;76.80;;;;;;5085744;28;20043;-59
2022/10/20 07:54:05;;;;;;;21.27;13.30;;;13.60;76.80;;;;;;5085903;28;20052;-60
2022/10/20 07:56:34;;;;;;;23.15;13.15;;;13.60;76.80;;;;;;5066669;28;20325;-59
2022/10/20 07:59:00;;;;;;;18.52;12.85;;;13.60;77.00;;;;;;5085524;28;20105;-60
2022/10/20 08:01:26;;;;;;;24.77;13.55;;;13.60;77.10;;;;;;5066667;28;20033;-60
2022/10/20 08:03:52;;;;;;;19.40;13.10;;;13.70;77.20;;;;;;5086380;28;20080;-59
2022/10/20 08:06:18;;;;;;;19.70;12.55;;;13.70;77.40;;;;;;5068608;28;20033;-59
2022/10/20 08:08:44;;;;;;;21.98;13.05;;;13.70;77.40;;;;;;5085752;28;20025;-60
2022/10/20 08:11:09;;;;;;;17.50;12.43;;;13.80;77.30;;;;;;5069220;28;20092;-59
2022/10/20 08:13:35;;;;;;;18.60;12.50;;;13.80;77.10;;;;;;5085137;28;20088;-60
2022/10/20 08:16:01;;;;;;;19.73;12.50;;;13.80;77.00;;;;;;5085192;28;20087;-60
2022/10/20 08:18:27;;;;;;;20.55;13.18;;;13.80;76.90;;;;;;5086363;28;20036;-60
2022/10/20 08:20:52;;;;;;;24.48;12.07;;;13.90;76.90;;;;;;5085552;28;20029;-60
2022/10/20 08:23:18;;;;;;;21.20;13.65;;;13.90;76.80;;;;;;5087842;28;20036;-60
2022/10/20 08:25:44;;;;;;;23.88;13.15;;;13.90;76.80;;;;;;5067244;28;20036;-59
2022/10/20 08:28:10;;;;;;;19.55;12.05;;;13.90;77.00;;;;;;5085999;28;20088;-59
2022/10/20 08:30:35;;;;;;;19.85;13.00;;;13.90;77.00;;;;;;5085306;28;20036;-61
2022/10/20 08:33:01;;;;;;;18.58;12.02;;;13.90;77.00;;;;;;5085706;28;20056;-60
2022/10/20 08:35:28;;;;;;;19.50;11.68;;;14.00;77.10;;;;;;5084628;28;20028;-60
2022/10/20 08:37:54;;;;;;;21.10;12.90;;;14.00;77.10;;;;;;5085623;28;20040;-61
2022/10/20 08:40:24;;;;;;;18.65;12.65;;;14.00;76.90;;;;;;5084773;28;20084;-60
2022/10/20 08:42:50;;;;;;;20.80;10.93;;;14.00;76.90;;;;;;5085344;28;20111;-61
2022/10/20 08:45:22;;;;;;;17.58;12.45;;;14.10;77.00;;;;;;5066484;28;20092;-61
2022/10/20 08:47:51;;;;;;;16.55;11.75;;;14.10;77.10;;;;;;5085666;28;20048;-60
2022/10/20 08:50:20;;;;;;;18.92;11.98;;;14.10;76.90;;;;;;5091528;28;20058;-60
2022/10/20 08:52:49;;;;;;;19.42;12.20;;;14.20;77.00;;;;;;5101149;28;20051;-61
2022/10/20 08:55:31;;;;;;;19.33;12.68;;;14.20;76.90;;;;;;5084766;28;20035;-62
2022/10/20 08:58:01;;;;;;;19.65;11.65;;;14.20;76.90;;;;;;5065515;28;20096;-60
2022/10/20 09:00:29;;;;;;;19.38;12.55;;;14.20;76.60;;;;;;5066474;28;20096;-61
2022/10/20 09:02:59;;;;;;;16.60;11.45;;;14.20;76.60;;;;;;5085266;28;20116;-60
2022/10/20 09:05:30;;;;;;;20.27;12.55;;;14.30;76.70;;;;;;5084393;28;20066;-60
2022/10/20 09:07:56;;;;;;;19.88;11.38;;;14.30;76.70;;;;;;5047185;28;20037;-62
2022/10/20 09:10:31;;;;;;;18.25;10.50;;;14.30;76.60;;;;;;5065535;28;20040;-61
2022/10/20 09:12:58;;;;;;;16.50;10.52;;;14.30;76.60;;;;;;5065459;28;20040;-60
2022/10/20 09:15:25;;;;;;;19.08;11.30;;;14.30;76.40;;;;;;5065706;28;20040;-61
2022/10/20 09:18:05;;;;;;;17.27;11.90;;;14.30;76.50;;;;;;5084737;28;20029;-61
2022/10/20 09:21:07;;;;;;;17.38;11.35;;;14.30;76.60;;;;;;5072791;28;20037;-62
2022/10/20 09:23:42;;;;;;;19.00;12.27;;;14.30;76.60;;;;;;5053445;28;20041;-61
2022/10/20 09:26:17;;;;;;;15.38;10.48;;;14.30;76.40;;;;;;5084106;28;20032;-63
2022/10/20 09:28:47;;;;;;;18.33;11.13;;;14.30;76.40;;;;;;5084860;28;20025;-60
2022/10/20 09:31:21;;;;;;;18.50;12.10;;;14.40;76.70;;;;;;5089259;28;20028;-62
2022/10/20 09:33:46;;;;;;;20.05;12.10;;;14.40;76.70;;;;;;5085109;28;20020;-63
2022/10/20 09:36:19;;;;;;;18.60;12.50;;;14.40;76.40;;;;;;5072488;28;20491;-60
2022/10/20 09:38:50;;;;;;;26.77;13.50;;;14.40;77.30;;;;;;5069119;28;20041;-60
2022/10/20 09:41:30;;;;;;;19.88;12.60;;;14.40;76.60;;;;;;5069040;28;20032;-60
2022/10/20 09:44:07;;;;;;;18.50;12.05;;;14.40;76.50;;;;;;5068851;28;20029;-59
2022/10/20 09:46:45;;;;;;;18.90;11.73;;;14.40;76.20;;;;;;5084836;28;20029;-60
2022/10/20 09:49:30;;;;;;;22.48;12.68;;;14.40;76.20;;;;;;5006391;28;20046;-61
2022/10/20 09:51:56;;;;;;;;;;;14.40;76.40;;;;;;5087783;28;20033;-60
2022/10/20 09:54:24;;;;;;;17.42;10.93;;;14.50;76.50;;;;;;5088052;28;19988;-60
2022/10/20 09:56:51;;;;;;;18.58;11.80;;;14.50;75.90;;;;;;5087354;28;20024;-60
2022/10/20 09:59:20;;;;;;;21.40;12.32;;;14.50;75.90;;;;;;5088538;28;20063;-61
2022/10/20 10:02:14;;;;;;;19.35;12.90;;;14.50;76.00;;;;;;5087327;28;20084;-61
2022/10/20 10:04:43;;;;;;;22.10;12.95;;;14.50;76.30;;;;;;5067420;28;20472;-63
2022/10/20 10:07:20;;;;;;;45.67;15.65;;;14.50;76.00;;;;;;5088394;28;20403;-61
2022/10/20 10:09:57;;;;;;;29.42;15.70;;;14.50;76.00;;;;;;5086349;28;20028;-60
2022/10/20 10:12:25;;;;;;;24.23;14.00;;;14.50;76.00;;;;;;5087882;28;20106;-59
2022/10/20 10:14:59;;;;;;;27.88;14.55;;;14.50;75.90;;;;;;5086957;28;20032;-62
2022/10/20 10:17:36;;;;;;;26.40;13.40;;;14.50;76.00;;;;;;5070568;28;20051;-61
2022/10/20 10:20:10;;;;;;;25.45;12.77;;;14.50;75.90;;;;;;5069796;28;20040;-62
2022/10/20 10:22:36;;;;;;;19.52;12.73;;;14.60;76.00;;;;;;5087816;28;20028;-63
2022/10/20 10:25:03;;;;;;;23.15;12.70;;;14.60;75.80;;;;;;5083794;28;20044;-60
2022/10/20 10:27:33;;;;;;;22.42;12.63;;;14.60;75.60;;;;;;5087115;28;20048;-62
2022/10/20 10:30:36;;;;;;;21.33;13.57;;;14.60;75.60;;;;;;5073937;28;20032;-60
2022/10/20 10:33:15;;;;;;;25.48;14.68;;;14.60;76.00;;;;;;5025510;28;20026;-59
2022/10/20 10:35:42;;;;;;;33.13;17.42;;;14.60;75.60;;;;;;4977127;28;20047;-60
2022/10/20 10:38:13;;;;;;;45.15;22.88;;;14.60;75.60;;;;;;5005311;28;20080;-60
2022/10/20 10:40:43;;;;;;;42.28;23.85;;;14.60;75.80;;;;;;4988135;28;20038;-61
2022/10/20 10:43:15;;;;;;;37.65;20.35;;;14.50;75.80;;;;;;5005960;28;20050;-60
2022/10/20 10:45:49;;;;;;;58.53;25.45;;;14.50;75.90;;;;;;5005075;28;20040;-61
2022/10/20 10:48:35;;;;;;;85.75;37.42;;;14.60;76.00;;;;;;4988731;28;20069;-59
2022/10/20 10:51:10;;;;;;;52.65;22.55;;;14.60;76.20;;;;;;4995042;28;20038;-60
2022/10/20 10:53:50;;;;;;;;;;;14.60;76.00;;;;;;4995043;28;20078;-61
2022/10/20 10:56:31;;;;;;;39.90;19.13;;;14.70;76.10;;;;;;4992270;28;20138;-60
2022/10/20 10:59:12;;;;;;;34.30;17.00;;;14.70;76.10;;;;;;4986226;28;20047;-60
2022/10/20 11:01:57;;;;;;;43.17;22.05;;;14.70;76.00;;;;;;4979689;28;20052;-60
2022/10/20 11:04:38;;;;;;;32.47;17.30;;;14.70;76.00;;;;;;4970199;28;20430;-60
2022/10/20 11:07:21;;;;;;;29.58;15.10;;;14.80;76.60;;;;;;5009413;28;20057;-61
2022/10/20 11:09:50;;;;;;;25.08;14.73;;;14.80;75.80;;;;;;5068310;28;20028;-60
2022/10/20 11:12:36;;;;;;;29.42;16.02;;;14.80;75.70;;;;;;5065922;28;20036;-61
2022/10/20 11:15:26;;;;;;;23.02;14.35;;;14.80;75.60;;;;;;5047991;28;20030;-60
2022/10/20 11:18:02;;;;;;;27.33;15.45;;;14.90;75.60;;;;;;5068591;28;20033;-60
2022/10/20 11:20:43;;;;;;;35.15;18.02;;;14.90;75.70;;;;;;5045919;28;20038;-60
2022/10/20 11:23:39;;;;;;;30.88;16.27;;;14.90;75.60;;;;;;5054930;28;20021;-61
2022/10/20 11:26:31;;;;;;;30.75;17.23;;;14.90;75.80;;;;;;5042767;28;20026;-60
2022/10/20 11:28:59;;;;;;;28.35;16.55;;;14.90;75.40;;;;;;5029575;28;20035;-61
2022/10/20 11:31:30;;;;;;;32.30;17.70;;;14.90;75.20;;;;;;5061673;28;20057;-60
2022/10/20 11:34:37;;;;;;;28.10;16.83;;;14.90;75.10;;;;;;5086592;28;20033;-60
2022/10/20 11:37:15;;;;;;;24.33;15.13;;;14.90;75.40;;;;;;5057263;28;20038;-60
2022/10/20 11:39:48;;;;;;;26.42;15.30;;;14.90;75.30;;;;;;5051761;28;20041;-60
2022/10/20 11:42:52;;;;;;;27.13;15.60;;;14.90;75.40;;;;;;5064709;28;20044;-60
2022/10/20 11:45:23;;;;;;;25.25;14.23;;;15.00;75.60;;;;;;5082287;28;20274;-60
2022/10/20 11:47:55;;;;;;;24.27;14.27;;;15.00;75.20;;;;;;5085588;28;20032;-61
2022/10/20 11:50:23;;;;;;;25.20;15.27;;;15.00;75.10;;;;;;5048138;28;20040;-59
2022/10/20 11:53:14;;;;;;;25.98;14.70;;;15.00;75.10;;;;;;5063119;28;20040;-60
2022/10/20 11:55:56;;;;;;;21.20;14.07;;;15.00;75.10;;;;;;5070657;28;20022;-60
2022/10/20 11:58:53;;;;;;;24.25;14.02;;;15.10;75.30;;;;;;5085869;28;20036;-59
2022/10/20 12:01:41;;;;;;;21.42;13.50;;;15.00;75.20;;;;;;5055443;28;20045;-60
2022/10/20 12:04:24;;;;;;;33.72;14.95;;;15.10;75.30;;;;;;5045859;28;20559;-60
2022/10/20 12:07:16;;;;;;;20.77;13.68;;;15.10;75.10;;;;;;5045834;28;20032;-60
2022/10/20 12:09:54;;;;;;;19.60;12.23;;;15.10;74.90;;;;;;5046713;28;20035;-60
2022/10/20 12:12:33;;;;;;;22.02;13.25;;;15.10;74.90;;;;;;5044345;28;20056;-59
2022/10/20 12:15:01;;;;;;;17.88;12.25;;;15.10;75.10;;;;;;5046435;28;20060;-59
2022/10/20 12:17:34;;;;;;;19.35;13.30;;;15.10;75.10;;;;;;5082588;28;20518;-60
2022/10/20 12:20:18;;;;;;;24.33;13.55;;;15.10;75.10;;;;;;5046610;28;20108;-60
2022/10/20 12:22:45;;;;;;;19.50;12.77;;;15.10;75.50;;;;;;5046315;28;20056;-60
2022/10/20 12:25:25;;;;;;;25.33;14.13;;;15.10;75.30;;;;;;5084695;28;20546;-60
2022/10/20 12:28:21;;;;;;;25.38;13.32;;;15.10;75.40;;;;;;5046679;28;20072;-59
2022/10/20 12:31:01;;;;;;;21.88;14.32;;;15.10;75.60;;;;;;5025566;28;20041;-60
2022/10/20 12:33:48;;;;;;;21.45;14.07;;;15.20;75.50;;;;;;5033478;28;20032;-60
2022/10/20 12:36:17;;;;;;;21.25;13.77;;;15.20;75.60;;;;;;5076156;28;20395;-60
2022/10/20 12:38:49;;;;;;;20.27;12.95;;;15.20;75.40;;;;;;5086352;28;20091;-60
2022/10/20 12:41:44;;;;;;;25.98;14.00;;;15.20;75.60;;;;;;5047604;28;20028;-60
2022/10/20 12:44:15;;;;;;;26.27;14.80;;;15.30;76.20;;;;;;5062900;28;20032;-61
2022/10/20 12:46:51;;;;;;;25.35;14.48;;;15.30;75.90;;;;;;5059963;28;20113;-61